createdAt,value
2024-05-09T00:01:27.746Z,12.00
2024-05-09T00:04:29.704Z,12.00
2024-05-09T00:07:31.651Z,12.10
2024-05-09T00:10:37.357Z,12.00
2024-05-09T00:13:40.834Z,12.00
2024-05-09T00:16:42.882Z,11.90
2024-05-09T00:19:45.682Z,12.00
2024-05-09T00:22:49.289Z,12.00
2024-05-09T00:25:51.429Z,12.00
2024-05-09T00:28:53.417Z,11.80
2024-05-09T00:31:55.393Z,11.80
2024-05-09T00:34:57.594Z,11.60
2024-05-09T00:41:04.846Z,11.60
2024-05-09T00:44:08.346Z,11.70
2024-05-09T00:47:10.726Z,11.60
2024-05-09T00:50:22.662Z,11.60
2024-05-09T00:53:28.494Z,11.60
2024-05-09T00:56:30.520Z,11.60
2024-05-09T00:59:34.468Z,11.60
2024-05-09T01:02:36.760Z,11.60
2024-05-09T01:05:39.767Z,11.60
2024-05-09T01:08:42.244Z,11.60
2024-05-09T01:11:44.515Z,11.50
2024-05-09T01:14:46.585Z,11.40
2024-05-09T01:17:49.050Z,11.40
2024-05-09T01:20:51.295Z,11.40
2024-05-09T01:23:53.269Z,11.30
2024-05-09T01:26:55.270Z,11.40
2024-05-09T01:29:57.175Z,11.40
2024-05-09T01:33:01.722Z,11.30
2024-05-09T01:36:05.516Z,11.30
2024-05-09T01:39:07.974Z,11.30
2024-05-09T01:42:09.900Z,11.20
2024-05-09T01:45:12.698Z,11.20
2024-05-09T01:48:14.892Z,11.30
2024-05-09T01:51:17.028Z,11.30
2024-05-09T01:54:19.178Z,11.40
2024-05-09T01:57:21.130Z,11.40
2024-05-09T02:00:36.410Z,11.30
2024-05-09T02:03:44.845Z,11.30
2024-05-09T02:06:47.045Z,11.10
2024-05-09T02:09:52.866Z,11.20
2024-05-09T02:12:54.772Z,11.20
2024-05-09T02:15:56.810Z,11.10
2024-05-09T02:18:59.473Z,11.00
2024-05-09T02:22:01.461Z,11.00
2024-05-09T02:25:03.414Z,10.90
2024-05-09T02:28:05.677Z,11.00
2024-05-09T02:31:07.855Z,11.00
2024-05-09T02:34:09.758Z,11.00
2024-05-09T02:37:11.662Z,10.90
2024-05-09T02:40:15.170Z,10.90
2024-05-09T02:43:23.489Z,10.90
2024-05-09T02:46:25.550Z,10.90
2024-05-09T02:49:30.675Z,11.10
2024-05-09T02:52:35.316Z,11.00
2024-05-09T02:55:41.432Z,11.00
2024-05-09T02:58:43.423Z,10.90
2024-05-09T03:01:45.841Z,10.80
2024-05-09T03:04:47.835Z,10.60
2024-05-09T03:07:49.790Z,10.70
2024-05-09T03:10:51.736Z,10.70
2024-05-09T03:13:54.463Z,10.60
2024-05-09T03:16:56.549Z,10.60
2024-05-09T03:19:59.162Z,10.60
2024-05-09T03:23:01.394Z,10.60
2024-05-09T03:26:05.846Z,10.60
2024-05-09T03:29:08.009Z,10.60
2024-05-09T03:32:10.444Z,10.50
2024-05-09T03:35:12.710Z,10.50
2024-05-09T03:38:14.894Z,10.50
2024-05-09T03:41:20.176Z,10.50
2024-05-09T03:44:24.589Z,10.60
2024-05-09T03:47:26.707Z,10.50
2024-05-09T03:50:33.930Z,10.50
2024-05-09T03:53:39.266Z,10.50
2024-05-09T03:56:41.406Z,10.50
2024-05-09T03:59:43.501Z,10.40
2024-05-09T04:02:48.274Z,10.40
2024-05-09T04:05:50.253Z,10.40
2024-05-09T04:08:57.799Z,10.30
2024-05-09T04:12:02.291Z,10.30
2024-05-09T04:15:04.504Z,10.30
2024-05-09T04:18:06.628Z,10.40
2024-05-09T04:21:09.098Z,10.50
2024-05-09T04:24:12.336Z,10.50
2024-05-09T04:27:21.543Z,10.30
2024-05-09T04:30:34.283Z,10.30
2024-05-09T04:33:41.069Z,10.30
2024-05-09T04:36:44.521Z,10.30
2024-05-09T04:39:49.019Z,10.40
2024-05-09T04:42:50.981Z,10.40
2024-05-09T04:45:53.616Z,10.30
2024-05-09T04:48:55.767Z,10.30
2024-05-09T04:51:59.390Z,10.40
2024-05-09T04:55:01.491Z,10.30
2024-05-09T04:58:03.676Z,10.30
2024-05-09T05:01:05.591Z,10.30
2024-05-09T05:04:07.653Z,10.30
2024-05-09T05:07:10.280Z,10.30
2024-05-09T05:10:17.890Z,10.40
2024-05-09T05:13:33.438Z,10.40
2024-05-09T05:16:35.341Z,10.30
2024-05-09T05:19:37.367Z,10.40
2024-05-09T05:22:43.152Z,10.40
2024-05-09T05:25:47.982Z,10.30
2024-05-09T05:28:56.143Z,10.40
2024-05-09T05:32:01.418Z,10.40
2024-05-09T05:35:03.575Z,10.40
2024-05-09T05:38:07.510Z,10.40
2024-05-09T05:41:10.304Z,10.40
2024-05-09T05:44:14.318Z,10.40
2024-05-09T05:47:16.407Z,10.50
2024-05-09T05:50:27.304Z,10.60
2024-05-09T05:53:35.000Z,10.50
2024-05-09T05:56:37.008Z,10.60
2024-05-09T05:59:39.318Z,10.60
2024-05-09T06:02:41.788Z,10.60
2024-05-09T06:05:46.902Z,10.60
2024-05-09T06:08:49.356Z,10.70
2024-05-09T06:11:51.378Z,10.70
2024-05-09T06:14:53.665Z,10.80
2024-05-09T06:17:55.645Z,10.80
2024-05-09T06:20:57.650Z,10.70
2024-05-09T06:24:00.356Z,10.80
2024-05-09T06:27:03.811Z,10.90
2024-05-09T06:30:08.147Z,10.80
2024-05-09T06:33:17.245Z,10.90
2024-05-09T06:36:19.435Z,10.80
2024-05-09T06:39:21.381Z,10.90
2024-05-09T06:42:23.304Z,11.00
2024-05-09T06:45:27.691Z,11.20
2024-05-09T06:48:30.133Z,11.10
2024-05-09T06:51:32.321Z,11.20
2024-05-09T06:54:36.628Z,11.10
2024-05-09T06:57:40.636Z,11.20
2024-05-09T07:00:47.191Z,11.30
2024-05-09T07:03:49.273Z,11.30
2024-05-09T07:06:51.334Z,11.30
2024-05-09T07:09:53.208Z,11.40
2024-05-09T07:12:55.084Z,11.40
2024-05-09T07:15:59.196Z,11.50
2024-05-09T07:19:01.462Z,11.60
2024-05-09T07:22:03.628Z,11.60
2024-05-09T07:25:05.730Z,11.60
2024-05-09T07:28:15.856Z,11.60
2024-05-09T07:31:17.920Z,11.70
2024-05-09T07:34:20.033Z,11.80
2024-05-09T07:37:22.392Z,11.80
2024-05-09T07:40:32.748Z,11.80
2024-05-09T07:43:41.039Z,11.90
2024-05-09T07:47:47.955Z,12.10
2024-05-09T07:53:37.212Z,12.10
2024-05-09T07:56:35.267Z,12.20
2024-05-09T07:59:40.320Z,12.30
2024-05-09T08:02:42.617Z,12.40
2024-05-09T08:05:44.656Z,12.50
2024-05-09T08:08:47.642Z,12.50
2024-05-09T08:11:52.797Z,12.70
2024-05-09T08:14:56.386Z,12.70
2024-05-09T08:17:58.450Z,12.80
2024-05-09T08:21:00.538Z,12.90
2024-05-09T08:24:02.868Z,13.00
2024-05-09T08:27:07.788Z,13.00
2024-05-09T08:30:25.284Z,13.10
2024-05-09T08:33:34.906Z,13.00
2024-05-09T08:36:37.229Z,13.00
2024-05-09T08:39:39.340Z,13.00
2024-05-09T08:42:49.456Z,13.10
2024-05-09T08:45:52.233Z,13.40
2024-05-09T08:48:58.444Z,13.50
2024-05-09T08:52:02.665Z,13.70
2024-05-09T08:55:07.989Z,13.90
2024-05-09T08:58:15.398Z,13.80
2024-05-09T09:01:19.112Z,13.90
2024-05-09T09:04:34.557Z,14.10
2024-05-09T09:07:39.966Z,14.30
2024-05-09T09:10:54.252Z,14.40
2024-05-09T09:14:06.797Z,14.60
2024-05-09T09:20:58.876Z,14.80
2024-05-09T09:23:24.240Z,14.70
2024-05-09T09:24:22.298Z,14.80
2024-05-09T09:27:24.435Z,14.90
2024-05-09T09:30:36.966Z,15.00
2024-05-09T09:33:43.923Z,15.00
2024-05-09T09:36:47.420Z,15.20
2024-05-09T09:39:49.502Z,15.30
2024-05-09T09:43:03.996Z,15.40
2024-05-09T09:46:13.621Z,15.50
2024-05-09T09:49:17.113Z,15.60
2024-05-09T09:52:22.642Z,15.80
2024-05-09T09:55:25.023Z,15.90
2024-05-09T09:58:29.137Z,15.90
2024-05-09T10:01:33.777Z,16.00
2024-05-09T10:04:37.056Z,16.10
2024-05-09T10:07:42.870Z,16.20
2024-05-09T10:10:48.161Z,16.30
2024-05-09T10:13:51.990Z,16.40
2024-05-09T10:17:04.627Z,16.50
2024-05-09T10:20:14.783Z,16.50
2024-05-09T10:23:39.032Z,16.60
2024-05-09T10:26:41.291Z,16.70
2024-05-09T10:29:56.800Z,16.70
2024-05-09T10:33:00.910Z,16.80
2024-05-09T10:36:23.019Z,16.90
2024-05-09T10:39:36.426Z,17.00
2024-05-09T10:42:39.796Z,17.20
2024-05-09T10:45:41.706Z,17.30
2024-05-09T10:48:44.404Z,17.40
2024-05-09T10:51:48.190Z,17.40
2024-05-09T10:54:51.877Z,17.50
2024-05-09T10:57:53.939Z,17.50
2024-05-09T11:00:56.126Z,17.60
2024-05-09T11:03:58.618Z,17.60
2024-05-09T11:07:05.546Z,17.70
2024-05-09T11:10:12.351Z,17.80
2024-05-09T11:13:14.690Z,17.80
2024-05-09T11:16:33.064Z,17.80
2024-05-09T11:19:40.101Z,17.90
2024-05-09T11:22:42.152Z,17.90
2024-05-09T11:25:50.580Z,18.00
2024-05-09T11:28:52.610Z,18.10
2024-05-09T11:31:54.549Z,18.10
2024-05-09T11:34:56.582Z,18.10
2024-05-09T11:37:58.464Z,18.10
2024-05-09T11:41:00.425Z,18.10
2024-05-09T11:44:04.754Z,18.20
2024-05-09T11:47:06.775Z,18.20
2024-05-09T11:50:13.002Z,18.20
2024-05-09T11:53:18.037Z,18.20
2024-05-09T11:56:20.107Z,18.20
2024-05-09T11:59:22.007Z,18.30
2024-05-09T12:02:24.114Z,18.30
2024-05-09T12:05:27.077Z,18.40
2024-05-09T12:08:29.271Z,18.40
2024-05-09T12:11:32.423Z,18.50
2024-05-09T12:14:36.002Z,18.60
2024-05-09T12:17:38.268Z,18.60
2024-05-09T12:20:40.460Z,18.60
2024-05-09T12:23:42.425Z,18.60
2024-05-09T12:26:44.351Z,18.70
2024-05-09T12:29:46.743Z,18.70
2024-05-09T12:32:49.727Z,18.70
2024-05-09T12:35:52.055Z,18.80
2024-05-09T12:38:54.038Z,18.90
2024-05-09T12:41:56.227Z,18.90
2024-05-09T12:44:58.061Z,19.00
2024-05-09T12:48:00.040Z,19.00
2024-05-09T12:51:02.001Z,19.00
2024-05-09T13:01:03.974Z,19.10
2024-05-09T13:04:06.164Z,19.10
2024-05-09T13:07:08.488Z,19.00
2024-05-09T13:10:19.695Z,19.00
2024-05-09T13:13:29.162Z,19.00
2024-05-09T13:16:31.319Z,19.10
2024-05-09T13:19:45.708Z,19.00
2024-05-09T13:22:48.639Z,19.10
2024-05-09T13:25:50.708Z,19.20
2024-05-09T13:29:01.452Z,19.20
2024-05-09T13:32:03.517Z,19.20
2024-05-09T13:35:05.922Z,19.30
2024-05-09T13:38:07.840Z,19.30
2024-05-09T13:44:34.637Z,19.20
2024-05-09T13:47:42.648Z,19.30
2024-05-09T13:50:44.729Z,19.30
2024-05-09T13:53:46.674Z,19.30
2024-05-09T13:56:52.535Z,19.40
2024-05-09T13:59:57.544Z,19.40
2024-05-09T14:03:02.776Z,19.40
2024-05-09T14:06:05.051Z,19.40
2024-05-09T14:09:09.826Z,19.40
2024-05-09T14:12:23.092Z,19.40
2024-05-09T14:15:40.997Z,19.40
2024-05-09T14:18:42.938Z,19.40
2024-05-09T14:21:44.863Z,19.40
2024-05-09T14:24:47.019Z,19.50
2024-05-09T14:27:49.280Z,19.40
2024-05-09T14:31:06.012Z,19.40
2024-05-09T14:34:11.080Z,19.50
2024-05-09T14:37:13.640Z,19.40
2024-05-09T14:40:30.494Z,19.30
2024-05-09T14:43:40.063Z,19.30
2024-05-09T14:50:08.994Z,19.30
2024-05-09T14:53:13.887Z,19.30
2024-05-09T14:56:28.449Z,19.40
2024-05-09T14:59:45.751Z,19.40
2024-05-09T15:02:48.089Z,19.40
2024-05-09T15:05:52.692Z,19.40
2024-05-09T15:08:56.903Z,19.30
2024-05-09T15:11:58.855Z,19.30
2024-05-09T15:15:00.937Z,19.30
2024-05-09T15:18:05.163Z,19.30
2024-05-09T15:21:07.649Z,19.30
2024-05-09T15:24:27.310Z,19.40
2024-05-09T15:27:29.403Z,19.30
2024-05-09T15:30:33.573Z,19.30
2024-05-09T15:33:37.029Z,19.30
2024-05-09T15:36:41.799Z,19.20
2024-05-09T15:43:04.201Z,19.20
2024-05-09T15:46:15.482Z,19.20
2024-05-09T15:49:17.962Z,19.20
2024-05-09T15:52:20.150Z,19.30
2024-05-09T15:55:22.134Z,19.20
2024-05-09T16:01:35.432Z,19.20
2024-05-09T16:04:40.565Z,19.20
2024-05-09T16:07:42.752Z,19.20
2024-05-09T16:11:02.322Z,19.20
2024-05-09T16:14:04.472Z,19.20
2024-05-09T16:17:06.710Z,19.30
2024-05-09T16:20:29.402Z,19.20
2024-05-09T16:23:40.540Z,19.20
2024-05-09T16:26:42.994Z,19.20
2024-05-09T16:29:48.224Z,19.20
2024-05-09T16:32:50.326Z,19.10
2024-05-09T16:35:55.107Z,19.20
2024-05-09T16:39:20.326Z,19.20
2024-05-09T16:42:26.624Z,19.30
2024-05-09T16:48:57.683Z,19.20
2024-05-09T16:51:59.722Z,19.20
2024-05-09T16:55:18.537Z,19.20
2024-05-09T16:58:20.936Z,19.20
2024-05-09T17:01:32.054Z,19.20
2024-05-09T17:07:51.013Z,19.20
2024-05-09T17:10:53.328Z,19.10
2024-05-09T17:14:04.335Z,19.10
2024-05-09T17:17:08.181Z,19.20
2024-05-09T17:20:28.856Z,19.20
2024-05-09T17:23:35.626Z,19.10
2024-05-09T17:26:40.381Z,19.10
2024-05-09T17:29:42.422Z,19.10
2024-05-09T17:32:44.425Z,19.00
2024-05-09T17:35:50.394Z,19.10
2024-05-09T17:38:58.646Z,19.10
2024-05-09T17:42:06.473Z,19.20
2024-05-09T17:45:11.385Z,19.20
2024-05-09T17:48:13.816Z,19.20
2024-05-09T17:51:15.984Z,19.30
2024-05-09T17:54:18.060Z,19.20
2024-05-09T18:00:51.087Z,19.20
2024-05-09T18:07:48.661Z,19.10
2024-05-09T18:11:08.391Z,19.10
2024-05-09T18:14:10.643Z,19.00
2024-05-09T18:17:13.489Z,19.00
2024-05-09T18:20:24.121Z,18.90
2024-05-09T18:23:35.382Z,18.90
2024-05-09T18:26:40.756Z,18.80
2024-05-09T18:29:42.820Z,18.80
2024-05-09T18:32:45.059Z,18.80
2024-05-09T18:35:47.028Z,18.70
2024-05-09T18:38:51.634Z,18.60
2024-05-09T18:41:53.692Z,18.50
2024-05-09T18:44:55.602Z,18.50
2024-05-09T18:47:57.967Z,18.50
2024-05-09T18:51:00.299Z,18.40
2024-05-09T18:54:02.239Z,18.30
2024-05-09T18:57:04.355Z,18.30
2024-05-09T19:00:08.770Z,18.20
2024-05-09T19:03:15.492Z,18.10
2024-05-09T19:06:21.041Z,18.00
2024-05-09T19:09:29.720Z,18.00
2024-05-09T19:12:37.777Z,18.00
2024-05-09T19:15:45.289Z,17.90
2024-05-09T19:18:57.140Z,17.80
2024-05-09T19:22:34.661Z,17.80
2024-05-09T19:25:47.156Z,17.70
2024-05-09T19:29:03.201Z,17.70
2024-05-09T19:32:05.391Z,17.60
2024-05-09T19:35:07.734Z,17.50
2024-05-09T19:38:09.812Z,17.50
2024-05-09T19:41:11.897Z,17.30
2024-05-09T19:48:03.655Z,17.30
2024-05-09T19:51:06.110Z,17.20
2024-05-09T19:54:13.936Z,17.20
2024-05-09T19:57:19.436Z,17.10
2024-05-09T20:00:29.212Z,17.00
2024-05-09T20:07:27.120Z,16.90
2024-05-09T20:10:32.717Z,17.00
2024-05-09T20:13:37.008Z,17.00
2024-05-09T20:16:38.895Z,16.80
2024-05-09T20:19:43.939Z,16.70
2024-05-09T20:22:46.130Z,16.70
2024-05-09T20:25:48.145Z,16.70
2024-05-09T20:28:50.028Z,16.70
2024-05-09T20:31:51.992Z,16.60
2024-05-09T20:34:56.220Z,16.60
2024-05-09T20:37:59.656Z,16.50
2024-05-09T20:41:02.284Z,16.50
2024-05-09T20:44:04.918Z,16.60
2024-05-09T20:47:06.787Z,16.40
2024-05-09T20:50:20.203Z,16.40
2024-05-09T20:53:30.130Z,16.40
2024-05-09T20:56:34.851Z,16.50
2024-05-09T20:59:39.182Z,16.40
2024-05-09T21:02:42.887Z,16.20
2024-05-09T21:05:45.271Z,16.30
2024-05-09T21:08:47.543Z,16.20
2024-05-09T21:11:49.478Z,16.30
2024-05-09T21:14:51.615Z,16.30
2024-05-09T21:17:55.460Z,16.20
2024-05-09T21:20:57.698Z,16.10
2024-05-09T21:23:59.566Z,16.10
2024-05-09T21:27:05.748Z,15.90
2024-05-09T21:30:18.611Z,15.90
2024-05-09T21:33:29.437Z,15.90
2024-05-09T21:36:31.776Z,16.00
2024-05-09T21:43:04.590Z,15.70
2024-05-09T21:46:16.308Z,15.80
2024-05-09T21:49:18.750Z,15.80
2024-05-09T21:52:20.755Z,15.70
2024-05-09T21:55:43.532Z,15.70
2024-05-09T21:59:07.306Z,15.70
2024-05-09T22:02:46.031Z,15.60
2024-05-09T22:06:03.218Z,15.60
2024-05-09T22:09:05.742Z,15.60
2024-05-09T22:12:26.563Z,15.60
2024-05-09T22:15:28.584Z,15.60
2024-05-09T22:21:46.157Z,15.40
2024-05-09T22:24:48.535Z,15.40
2024-05-09T22:27:57.131Z,15.40
2024-05-09T22:31:14.537Z,15.40
2024-05-09T22:34:22.243Z,15.30
2024-05-09T22:37:42.421Z,15.30
2024-05-09T22:40:52.299Z,15.20
2024-05-09T22:43:57.512Z,15.20
2024-05-09T22:47:35.621Z,15.10
2024-05-09T22:50:48.228Z,15.00
2024-05-09T22:53:50.261Z,15.00
2024-05-09T22:56:52.395Z,15.00
2024-05-09T23:00:00.593Z,15.00
2024-05-09T23:03:02.839Z,15.00
2024-05-09T23:09:47.643Z,14.90
2024-05-09T23:13:21.390Z,14.80
2024-05-09T23:16:39.751Z,14.80
2024-05-09T23:19:41.678Z,14.80
2024-05-09T23:22:46.345Z,14.80
2024-05-09T23:25:50.002Z,14.70
2024-05-09T23:28:52.115Z,14.70
2024-05-09T23:31:58.025Z,14.60
2024-05-09T23:38:24.851Z,14.50
2024-05-09T23:41:36.398Z,14.50
2024-05-09T23:48:10.863Z,14.40
2024-05-09T23:52:00.664Z,14.30
2024-05-09T23:55:02.738Z,14.40
2024-05-09T23:58:05.681Z,14.30
